sensor_id;sensor_type;location;lat;lon;timestamp;P1;durP1;ratioP1;P2;durP2;ratioP2
11907;SDS011;6014;47.690;9.130;2023-11-19T00:01:54;2.03;;;1.35;;
11907;SDS011;6014;47.690;9.130;2023-11-19T00:04:23;1.83;;;1.30;;
11907;SDS011;6014;47.690;9.130;2023-11-19T00:06:51;2.97;;;1.55;;
11907;SDS011;6014;47.690;9.130;2023-11-19T00:09:19;2.70;;;1.40;;
11907;SDS011;6014;47.690;9.130;2023-11-19T00:11:48;2.63;;;1.40;;
11907;SDS011;6014;47.690;9.130;2023-11-19T00:14:19;1.73;;;1.30;;
11907;SDS011;6014;47.690;9.130;2023-11-19T00:16:47;3.53;;;1.60;;
11907;SDS011;6014;47.690;9.130;2023-11-19T00:19:17;2.10;;;1.15;;
11907;SDS011;6014;47.690;9.130;2023-11-19T00:21:45;1.38;;;1.17;;
11907;SDS011;6014;47.690;9.130;2023-11-19T00:24:13;3.92;;;1.30;;
11907;SDS011;6014;47.690;9.130;2023-11-19T00:26:42;1.45;;;1.00;;
11907;SDS011;6014;47.690;9.130;2023-11-19T00:29:12;2.15;;;1.40;;
11907;SDS011;6014;47.690;9.130;2023-11-19T00:31:40;2.30;;;1.20;;
11907;SDS011;6014;47.690;9.130;2023-11-19T00:34:10;1.88;;;1.10;;
11907;SDS011;6014;47.690;9.130;2023-11-19T00:36:39;1.83;;;1.13;;
11907;SDS011;6014;47.690;9.130;2023-11-19T00:39:07;2.50;;;1.52;;
11907;SDS011;6014;47.690;9.130;2023-11-19T00:41:35;2.53;;;1.30;;
11907;SDS011;6014;47.690;9.130;2023-11-19T00:44:04;2.38;;;1.35;;
11907;SDS011;6014;47.690;9.130;2023-11-19T00:46:33;1.98;;;1.25;;
11907;SDS011;6014;47.690;9.130;2023-11-19T00:49:01;1.58;;;1.13;;
11907;SDS011;6014;47.690;9.130;2023-11-19T00:51:30;1.83;;;1.05;;
11907;SDS011;6014;47.690;9.130;2023-11-19T00:53:58;2.65;;;1.30;;
11907;SDS011;6014;47.690;9.130;2023-11-19T00:56:27;1.58;;;1.10;;
11907;SDS011;6014;47.690;9.130;2023-11-19T00:58:57;2.60;;;1.52;;
11907;SDS011;6014;47.690;9.130;2023-11-19T01:01:26;1.65;;;1.25;;
11907;SDS011;6014;47.690;9.130;2023-11-19T01:03:55;2.25;;;1.38;;
11907;SDS011;6014;47.690;9.130;2023-11-19T01:06:27;1.92;;;1.13;;
11907;SDS011;6014;47.690;9.130;2023-11-19T01:08:56;2.35;;;1.55;;
11907;SDS011;6014;47.690;9.130;2023-11-19T01:11:25;2.65;;;1.45;;
11907;SDS011;6014;47.690;9.130;2023-11-19T01:13:53;2.47;;;1.48;;
11907;SDS011;6014;47.690;9.130;2023-11-19T01:16:21;1.30;;;0.95;;
11907;SDS011;6014;47.690;9.130;2023-11-19T01:18:57;2.63;;;1.30;;
11907;SDS011;6014;47.690;9.130;2023-11-19T01:21:42;3.35;;;1.58;;
11907;SDS011;6014;47.690;9.130;2023-11-19T01:24:10;3.35;;;1.80;;
11907;SDS011;6014;47.690;9.130;2023-11-19T01:26:39;3.53;;;1.50;;
11907;SDS011;6014;47.690;9.130;2023-11-19T01:29:11;2.25;;;1.40;;
11907;SDS011;6014;47.690;9.130;2023-11-19T01:31:41;3.05;;;1.95;;
11907;SDS011;6014;47.690;9.130;2023-11-19T01:34:10;4.18;;;1.60;;
11907;SDS011;6014;47.690;9.130;2023-11-19T01:36:39;4.00;;;1.83;;
11907;SDS011;6014;47.690;9.130;2023-11-19T01:39:07;2.92;;;1.38;;
11907;SDS011;6014;47.690;9.130;2023-11-19T01:41:35;2.85;;;1.50;;
11907;SDS011;6014;47.690;9.130;2023-11-19T01:44:05;2.47;;;1.38;;
11907;SDS011;6014;47.690;9.130;2023-11-19T01:46:33;2.08;;;1.20;;
11907;SDS011;6014;47.690;9.130;2023-11-19T01:49:03;3.03;;;1.50;;
11907;SDS011;6014;47.690;9.130;2023-11-19T01:51:34;3.00;;;1.58;;
11907;SDS011;6014;47.690;9.130;2023-11-19T01:54:03;4.32;;;1.52;;
11907;SDS011;6014;47.690;9.130;2023-11-19T01:56:31;2.40;;;1.38;;
11907;SDS011;6014;47.690;9.130;2023-11-19T01:58:59;2.10;;;1.25;;
11907;SDS011;6014;47.690;9.130;2023-11-19T02:01:28;3.03;;;1.58;;
11907;SDS011;6014;47.690;9.130;2023-11-19T02:03:59;3.53;;;1.60;;
11907;SDS011;6014;47.690;9.130;2023-11-19T02:06:27;3.28;;;1.40;;
11907;SDS011;6014;47.690;9.130;2023-11-19T02:08:57;3.65;;;1.70;;
11907;SDS011;6014;47.690;9.130;2023-11-19T02:11:25;1.98;;;1.30;;
11907;SDS011;6014;47.690;9.130;2023-11-19T02:13:55;3.03;;;1.30;;
11907;SDS011;6014;47.690;9.130;2023-11-19T02:16:24;2.25;;;1.10;;
11907;SDS011;6014;47.690;9.130;2023-11-19T02:18:52;2.55;;;1.40;;
11907;SDS011;6014;47.690;9.130;2023-11-19T02:21:20;1.35;;;0.98;;
11907;SDS011;6014;47.690;9.130;2023-11-19T02:23:48;2.55;;;1.38;;
11907;SDS011;6014;47.690;9.130;2023-11-19T02:26:19;4.68;;;1.73;;
11907;SDS011;6014;47.690;9.130;2023-11-19T02:28:54;1.85;;;1.02;;
11907;SDS011;6014;47.690;9.130;2023-11-19T02:31:22;1.58;;;1.02;;
11907;SDS011;6014;47.690;9.130;2023-11-19T02:33:51;1.55;;;1.15;;
11907;SDS011;6014;47.690;9.130;2023-11-19T02:36:19;1.98;;;1.05;;
11907;SDS011;6014;47.690;9.130;2023-11-19T02:38:47;3.60;;;1.70;;
11907;SDS011;6014;47.690;9.130;2023-11-19T02:41:16;6.03;;;2.58;;
11907;SDS011;6014;47.690;9.130;2023-11-19T02:43:44;4.10;;;1.70;;
11907;SDS011;6014;47.690;9.130;2023-11-19T02:49:59;1.65;;;1.08;;
11907;SDS011;6014;47.690;9.130;2023-11-19T02:52:27;4.47;;;2.10;;
11907;SDS011;6014;47.690;9.130;2023-11-19T02:54:55;4.82;;;2.20;;
11907;SDS011;6014;47.690;9.130;2023-11-19T02:57:23;6.07;;;2.05;;
11907;SDS011;6014;47.690;9.130;2023-11-19T02:59:51;2.63;;;1.30;;
11907;SDS011;6014;47.690;9.130;2023-11-19T03:02:22;2.25;;;1.25;;
11907;SDS011;6014;47.690;9.130;2023-11-19T03:04:53;3.50;;;1.70;;
11907;SDS011;6014;47.690;9.130;2023-11-19T03:07:23;1.92;;;1.10;;
11907;SDS011;6014;47.690;9.130;2023-11-19T03:09:51;2.88;;;1.35;;
11907;SDS011;6014;47.690;9.130;2023-11-19T03:12:21;2.65;;;1.30;;
11907;SDS011;6014;47.690;9.130;2023-11-19T03:14:49;2.45;;;1.20;;
11907;SDS011;6014;47.690;9.130;2023-11-19T03:17:17;2.95;;;1.40;;
11907;SDS011;6014;47.690;9.130;2023-11-19T03:19:45;1.13;;;0.90;;
11907;SDS011;6014;47.690;9.130;2023-11-19T03:22:14;1.73;;;1.05;;
11907;SDS011;6014;47.690;9.130;2023-11-19T03:24:44;2.78;;;1.35;;
11907;SDS011;6014;47.690;9.130;2023-11-19T03:27:12;2.40;;;1.05;;
11907;SDS011;6014;47.690;9.130;2023-11-19T03:29:43;1.85;;;1.10;;
11907;SDS011;6014;47.690;9.130;2023-11-19T03:32:11;2.65;;;1.33;;
11907;SDS011;6014;47.690;9.130;2023-11-19T03:34:39;1.73;;;0.98;;
11907;SDS011;6014;47.690;9.130;2023-11-19T03:37:08;1.58;;;1.02;;
11907;SDS011;6014;47.690;9.130;2023-11-19T03:39:36;2.28;;;1.33;;
11907;SDS011;6014;47.690;9.130;2023-11-19T03:42:05;1.25;;;1.00;;
11907;SDS011;6014;47.690;9.130;2023-11-19T03:44:34;2.72;;;1.20;;
11907;SDS011;6014;47.690;9.130;2023-11-19T03:47:02;2.88;;;1.45;;
11907;SDS011;6014;47.690;9.130;2023-11-19T03:49:30;1.67;;;1.17;;
11907;SDS011;6014;47.690;9.130;2023-11-19T03:51:58;2.88;;;1.40;;
11907;SDS011;6014;47.690;9.130;2023-11-19T03:54:27;2.67;;;1.30;;
11907;SDS011;6014;47.690;9.130;2023-11-19T03:56:55;3.13;;;1.35;;
11907;SDS011;6014;47.690;9.130;2023-11-19T03:59:24;2.08;;;1.13;;
11907;SDS011;6014;47.690;9.130;2023-11-19T04:01:53;1.60;;;1.08;;
11907;SDS011;6014;47.690;9.130;2023-11-19T04:04:22;2.28;;;1.42;;
11907;SDS011;6014;47.690;9.130;2023-11-19T04:06:51;2.20;;;1.45;;
11907;SDS011;6014;47.690;9.130;2023-11-19T04:09:19;2.05;;;1.30;;
11907;SDS011;6014;47.690;9.130;2023-11-19T04:11:48;3.70;;;1.30;;
11907;SDS011;6014;47.690;9.130;2023-11-19T04:14:16;2.35;;;1.27;;
11907;SDS011;6014;47.690;9.130;2023-11-19T04:16:46;2.90;;;1.40;;
11907;SDS011;6014;47.690;9.130;2023-11-19T04:19:28;3.05;;;1.27;;
11907;SDS011;6014;47.690;9.130;2023-11-19T04:21:59;3.13;;;1.33;;
11907;SDS011;6014;47.690;9.130;2023-11-19T04:24:27;2.50;;;1.42;;
11907;SDS011;6014;47.690;9.130;2023-11-19T04:26:55;3.13;;;1.50;;
11907;SDS011;6014;47.690;9.130;2023-11-19T04:29:23;2.90;;;1.58;;
11907;SDS011;6014;47.690;9.130;2023-11-19T04:31:53;3.15;;;1.48;;
11907;SDS011;6014;47.690;9.130;2023-11-19T04:34:21;2.20;;;1.33;;
11907;SDS011;6014;47.690;9.130;2023-11-19T04:36:49;2.03;;;1.33;;
11907;SDS011;6014;47.690;9.130;2023-11-19T04:39:17;5.82;;;1.52;;
11907;SDS011;6014;47.690;9.130;2023-11-19T04:41:46;2.45;;;1.35;;
11907;SDS011;6014;47.690;9.130;2023-11-19T04:44:15;3.28;;;1.55;;
11907;SDS011;6014;47.690;9.130;2023-11-19T04:46:44;2.92;;;1.67;;
11907;SDS011;6014;47.690;9.130;2023-11-19T04:49:14;2.75;;;1.52;;
11907;SDS011;6014;47.690;9.130;2023-11-19T04:51:43;2.75;;;1.50;;
11907;SDS011;6014;47.690;9.130;2023-11-19T04:54:13;3.50;;;1.58;;
11907;SDS011;6014;47.690;9.130;2023-11-19T04:56:44;4.25;;;1.80;;
11907;SDS011;6014;47.690;9.130;2023-11-19T04:59:13;4.28;;;1.58;;
11907;SDS011;6014;47.690;9.130;2023-11-19T05:01:41;3.33;;;1.83;;
11907;SDS011;6014;47.690;9.130;2023-11-19T05:04:15;3.75;;;1.70;;
11907;SDS011;6014;47.690;9.130;2023-11-19T05:06:45;3.50;;;1.83;;
11907;SDS011;6014;47.690;9.130;2023-11-19T05:09:13;3.90;;;1.88;;
11907;SDS011;6014;47.690;9.130;2023-11-19T05:11:41;2.78;;;1.65;;
11907;SDS011;6014;47.690;9.130;2023-11-19T05:14:12;4.60;;;2.00;;
11907;SDS011;6014;47.690;9.130;2023-11-19T05:16:40;4.50;;;2.15;;
11907;SDS011;6014;47.690;9.130;2023-11-19T05:19:09;3.60;;;1.90;;
11907;SDS011;6014;47.690;9.130;2023-11-19T05:21:41;3.17;;;1.45;;
11907;SDS011;6014;47.690;9.130;2023-11-19T05:24:09;3.63;;;1.75;;
11907;SDS011;6014;47.690;9.130;2023-11-19T05:26:39;3.00;;;1.67;;
11907;SDS011;6014;47.690;9.130;2023-11-19T05:29:07;2.85;;;1.50;;
11907;SDS011;6014;47.690;9.130;2023-11-19T05:31:36;3.55;;;1.80;;
11907;SDS011;6014;47.690;9.130;2023-11-19T05:34:05;3.55;;;1.77;;
11907;SDS011;6014;47.690;9.130;2023-11-19T05:36:33;2.70;;;1.70;;
11907;SDS011;6014;47.690;9.130;2023-11-19T05:39:03;3.45;;;2.05;;
11907;SDS011;6014;47.690;9.130;2023-11-19T05:41:31;3.63;;;1.70;;
11907;SDS011;6014;47.690;9.130;2023-11-19T05:43:59;3.40;;;1.58;;
11907;SDS011;6014;47.690;9.130;2023-11-19T05:46:27;2.60;;;1.42;;
11907;SDS011;6014;47.690;9.130;2023-11-19T05:48:56;2.40;;;1.40;;
11907;SDS011;6014;47.690;9.130;2023-11-19T05:51:24;2.60;;;1.75;;
11907;SDS011;6014;47.690;9.130;2023-11-19T05:53:52;4.78;;;2.03;;
11907;SDS011;6014;47.690;9.130;2023-11-19T05:56:23;2.38;;;1.38;;
11907;SDS011;6014;47.690;9.130;2023-11-19T05:59:00;3.58;;;1.90;;
11907;SDS011;6014;47.690;9.130;2023-11-19T06:01:33;3.17;;;1.88;;
11907;SDS011;6014;47.690;9.130;2023-11-19T06:04:03;4.35;;;1.83;;
11907;SDS011;6014;47.690;9.130;2023-11-19T06:06:31;4.68;;;2.25;;
11907;SDS011;6014;47.690;9.130;2023-11-19T06:08:59;3.70;;;1.60;;
11907;SDS011;6014;47.690;9.130;2023-11-19T06:11:41;3.70;;;1.58;;
11907;SDS011;6014;47.690;9.130;2023-11-19T06:14:10;3.17;;;1.65;;
11907;SDS011;6014;47.690;9.130;2023-11-19T06:16:38;2.22;;;1.20;;
11907;SDS011;6014;47.690;9.130;2023-11-19T06:19:07;3.38;;;1.45;;
11907;SDS011;6014;47.690;9.130;2023-11-19T06:21:36;4.70;;;1.65;;
11907;SDS011;6014;47.690;9.130;2023-11-19T06:24:04;2.60;;;1.33;;
11907;SDS011;6014;47.690;9.130;2023-11-19T06:26:33;3.65;;;1.30;;
11907;SDS011;6014;47.690;9.130;2023-11-19T06:29:02;2.78;;;1.40;;
11907;SDS011;6014;47.690;9.130;2023-11-19T06:31:30;2.60;;;1.45;;
11907;SDS011;6014;47.690;9.130;2023-11-19T06:33:58;3.35;;;1.42;;
11907;SDS011;6014;47.690;9.130;2023-11-19T06:36:26;1.60;;;1.05;;
11907;SDS011;6014;47.690;9.130;2023-11-19T06:38:55;2.10;;;1.30;;
11907;SDS011;6014;47.690;9.130;2023-11-19T06:41:23;1.73;;;1.17;;
11907;SDS011;6014;47.690;9.130;2023-11-19T06:43:51;2.08;;;1.15;;
11907;SDS011;6014;47.690;9.130;2023-11-19T06:46:20;1.63;;;1.00;;
11907;SDS011;6014;47.690;9.130;2023-11-19T06:48:48;1.85;;;1.00;;
11907;SDS011;6014;47.690;9.130;2023-11-19T06:51:16;1.67;;;1.00;;
11907;SDS011;6014;47.690;9.130;2023-11-19T06:53:44;1.70;;;1.10;;
11907;SDS011;6014;47.690;9.130;2023-11-19T06:56:19;2.85;;;1.33;;
11907;SDS011;6014;47.690;9.130;2023-11-19T06:58:48;4.50;;;1.38;;
11907;SDS011;6014;47.690;9.130;2023-11-19T07:01:17;2.15;;;0.93;;
11907;SDS011;6014;47.690;9.130;2023-11-19T07:03:54;1.98;;;1.00;;
11907;SDS011;6014;47.690;9.130;2023-11-19T07:06:24;2.28;;;1.23;;
11907;SDS011;6014;47.690;9.130;2023-11-19T07:08:55;2.00;;;1.30;;
11907;SDS011;6014;47.690;9.130;2023-11-19T07:11:24;2.05;;;1.00;;
11907;SDS011;6014;47.690;9.130;2023-11-19T07:13:52;2.83;;;1.20;;
11907;SDS011;6014;47.690;9.130;2023-11-19T07:16:20;2.42;;;0.90;;
11907;SDS011;6014;47.690;9.130;2023-11-19T07:18:49;2.10;;;1.00;;
11907;SDS011;6014;47.690;9.130;2023-11-19T07:21:18;1.40;;;0.90;;
11907;SDS011;6014;47.690;9.130;2023-11-19T07:23:46;1.58;;;0.95;;
11907;SDS011;6014;47.690;9.130;2023-11-19T07:26:15;1.60;;;0.85;;
11907;SDS011;6014;47.690;9.130;2023-11-19T07:28:43;1.00;;;0.73;;
11907;SDS011;6014;47.690;9.130;2023-11-19T07:31:12;1.50;;;0.90;;
11907;SDS011;6014;47.690;9.130;2023-11-19T07:33:41;2.08;;;0.82;;
11907;SDS011;6014;47.690;9.130;2023-11-19T07:36:09;1.48;;;0.88;;
11907;SDS011;6014;47.690;9.130;2023-11-19T07:38:38;0.93;;;0.82;;
11907;SDS011;6014;47.690;9.130;2023-11-19T07:41:07;1.75;;;0.90;;
11907;SDS011;6014;47.690;9.130;2023-11-19T07:43:43;1.45;;;0.90;;
11907;SDS011;6014;47.690;9.130;2023-11-19T07:46:16;1.42;;;1.10;;
11907;SDS011;6014;47.690;9.130;2023-11-19T07:48:46;2.85;;;0.88;;
11907;SDS011;6014;47.690;9.130;2023-11-19T07:51:14;2.53;;;1.27;;
11907;SDS011;6014;47.690;9.130;2023-11-19T07:53:45;1.40;;;1.00;;
11907;SDS011;6014;47.690;9.130;2023-11-19T07:56:13;0.93;;;0.52;;
11907;SDS011;6014;47.690;9.130;2023-11-19T07:58:41;1.60;;;0.88;;
11907;SDS011;6014;47.690;9.130;2023-11-19T08:01:09;1.38;;;0.80;;
11907;SDS011;6014;47.690;9.130;2023-11-19T08:03:37;1.30;;;0.80;;
11907;SDS011;6014;47.690;9.130;2023-11-19T08:06:06;1.40;;;0.93;;
11907;SDS011;6014;47.690;9.130;2023-11-19T08:08:34;1.73;;;0.82;;
11907;SDS011;6014;47.690;9.130;2023-11-19T08:11:06;1.23;;;0.82;;
11907;SDS011;6014;47.690;9.130;2023-11-19T08:13:34;1.30;;;0.73;;
11907;SDS011;6014;47.690;9.130;2023-11-19T08:16:02;1.13;;;0.90;;
11907;SDS011;6014;47.690;9.130;2023-11-19T08:18:32;1.67;;;0.88;;
11907;SDS011;6014;47.690;9.130;2023-11-19T08:21:00;0.90;;;0.73;;
11907;SDS011;6014;47.690;9.130;2023-11-19T08:23:31;0.73;;;0.60;;
11907;SDS011;6014;47.690;9.130;2023-11-19T08:26:04;1.13;;;0.73;;
11907;SDS011;6014;47.690;9.130;2023-11-19T08:28:34;2.58;;;1.10;;
11907;SDS011;6014;47.690;9.130;2023-11-19T08:31:02;1.90;;;1.08;;
11907;SDS011;6014;47.690;9.130;2023-11-19T08:33:31;1.67;;;0.90;;
11907;SDS011;6014;47.690;9.130;2023-11-19T08:35:59;1.27;;;1.02;;
11907;SDS011;6014;47.690;9.130;2023-11-19T08:38:30;1.00;;;0.90;;
11907;SDS011;6014;47.690;9.130;2023-11-19T08:40:58;2.17;;;1.00;;
11907;SDS011;6014;47.690;9.130;2023-11-19T08:43:28;3.42;;;1.45;;
11907;SDS011;6014;47.690;9.130;2023-11-19T08:45:58;6.35;;;1.88;;
11907;SDS011;6014;47.690;9.130;2023-11-19T08:48:26;4.40;;;1.48;;
11907;SDS011;6014;47.690;9.130;2023-11-19T08:50:54;4.47;;;1.45;;
11907;SDS011;6014;47.690;9.130;2023-11-19T08:53:23;3.13;;;1.70;;
11907;SDS011;6014;47.690;9.130;2023-11-19T08:55:51;2.78;;;1.60;;
11907;SDS011;6014;47.690;9.130;2023-11-19T08:58:19;3.63;;;2.20;;
11907;SDS011;6014;47.690;9.130;2023-11-19T09:00:49;3.13;;;1.60;;
11907;SDS011;6014;47.690;9.130;2023-11-19T09:03:17;3.58;;;1.45;;
11907;SDS011;6014;47.690;9.130;2023-11-19T09:05:45;3.00;;;1.40;;
11907;SDS011;6014;47.690;9.130;2023-11-19T09:08:13;4.35;;;2.42;;
11907;SDS011;6014;47.690;9.130;2023-11-19T09:10:41;3.97;;;2.00;;
11907;SDS011;6014;47.690;9.130;2023-11-19T09:13:10;2.20;;;1.52;;
11907;SDS011;6014;47.690;9.130;2023-11-19T09:15:37;4.45;;;1.60;;
11907;SDS011;6014;47.690;9.130;2023-11-19T09:18:06;1.75;;;1.00;;
11907;SDS011;6014;47.690;9.130;2023-11-19T09:20:34;1.90;;;1.00;;
11907;SDS011;6014;47.690;9.130;2023-11-19T09:23:05;3.75;;;1.50;;
11907;SDS011;6014;47.690;9.130;2023-11-19T09:25:35;2.25;;;1.30;;
11907;SDS011;6014;47.690;9.130;2023-11-19T09:28:06;2.03;;;1.27;;
11907;SDS011;6014;47.690;9.130;2023-11-19T09:30:35;1.73;;;1.00;;
11907;SDS011;6014;47.690;9.130;2023-11-19T09:33:03;0.95;;;0.60;;
11907;SDS011;6014;47.690;9.130;2023-11-19T09:35:33;0.65;;;0.65;;
11907;SDS011;6014;47.690;9.130;2023-11-19T09:38:01;1.27;;;0.63;;
11907;SDS011;6014;47.690;9.130;2023-11-19T09:40:31;2.90;;;1.23;;
11907;SDS011;6014;47.690;9.130;2023-11-19T09:42:59;4.22;;;2.28;;
11907;SDS011;6014;47.690;9.130;2023-11-19T09:45:28;2.25;;;1.48;;
11907;SDS011;6014;47.690;9.130;2023-11-19T09:48:00;0.75;;;0.70;;
11907;SDS011;6014;47.690;9.130;2023-11-19T09:50:29;0.98;;;0.70;;
11907;SDS011;6014;47.690;9.130;2023-11-19T09:53:00;0.75;;;0.50;;
11907;SDS011;6014;47.690;9.130;2023-11-19T09:55:29;0.65;;;0.65;;
11907;SDS011;6014;47.690;9.130;2023-11-19T09:57:57;0.77;;;0.70;;
11907;SDS011;6014;47.690;9.130;2023-11-19T10:00:36;2.78;;;1.25;;
11907;SDS011;6014;47.690;9.130;2023-11-19T10:03:08;0.95;;;0.60;;
11907;SDS011;6014;47.690;9.130;2023-11-19T10:05:39;0.85;;;0.70;;
11907;SDS011;6014;47.690;9.130;2023-11-19T10:10:47;2.42;;;1.23;;
11907;SDS011;6014;47.690;9.130;2023-11-19T10:13:25;1.90;;;0.93;;
11907;SDS011;6014;47.690;9.130;2023-11-19T10:15:56;2.10;;;0.52;;
11907;SDS011;6014;47.690;9.130;2023-11-19T10:20:57;1.55;;;0.70;;
11907;SDS011;6014;47.690;9.130;2023-11-19T10:23:27;1.27;;;0.98;;
11907;SDS011;6014;47.690;9.130;2023-11-19T10:25:55;1.38;;;0.73;;
11907;SDS011;6014;47.690;9.130;2023-11-19T10:28:37;1.63;;;1.10;;
11907;SDS011;6014;47.690;9.130;2023-11-19T10:31:08;1.65;;;0.65;;
11907;SDS011;6014;47.690;9.130;2023-11-19T10:33:37;2.10;;;0.77;;
11907;SDS011;6014;47.690;9.130;2023-11-19T10:36:05;1.63;;;0.90;;
11907;SDS011;6014;47.690;9.130;2023-11-19T10:38:35;0.88;;;0.60;;
11907;SDS011;6014;47.690;9.130;2023-11-19T10:41:04;1.85;;;1.30;;
11907;SDS011;6014;47.690;9.130;2023-11-19T10:43:42;1.63;;;0.88;;
11907;SDS011;6014;47.690;9.130;2023-11-19T10:46:12;0.82;;;0.60;;
11907;SDS011;6014;47.690;9.130;2023-11-19T10:48:47;8.93;;;1.35;;
11907;SDS011;6014;47.690;9.130;2023-11-19T10:51:18;1.20;;;0.80;;
11907;SDS011;6014;47.690;9.130;2023-11-19T10:56:39;3.08;;;1.10;;
11907;SDS011;6014;47.690;9.130;2023-11-19T10:59:10;1.90;;;0.77;;
11907;SDS011;6014;47.690;9.130;2023-11-19T11:01:44;1.73;;;1.08;;
11907;SDS011;6014;47.690;9.130;2023-11-19T11:04:14;1.20;;;0.80;;
11907;SDS011;6014;47.690;9.130;2023-11-19T11:06:44;1.50;;;0.60;;
11907;SDS011;6014;47.690;9.130;2023-11-19T11:09:15;1.35;;;0.63;;
11907;SDS011;6014;47.690;9.130;2023-11-19T11:11:44;4.32;;;0.68;;
11907;SDS011;6014;47.690;9.130;2023-11-19T11:14:14;0.68;;;0.60;;
11907;SDS011;6014;47.690;9.130;2023-11-19T11:16:46;2.30;;;1.10;;
11907;SDS011;6014;47.690;9.130;2023-11-19T11:19:15;0.50;;;0.50;;
11907;SDS011;6014;47.690;9.130;2023-11-19T11:21:45;1.85;;;0.68;;
11907;SDS011;6014;47.690;9.130;2023-11-19T11:24:27;1.13;;;0.80;;
11907;SDS011;6014;47.690;9.130;2023-11-19T11:27:18;2.55;;;0.90;;
11907;SDS011;6014;47.690;9.130;2023-11-19T11:30:14;2.05;;;0.98;;
11907;SDS011;6014;47.690;9.130;2023-11-19T11:32:59;1.33;;;0.60;;
11907;SDS011;6014;47.690;9.130;2023-11-19T11:35:41;1.20;;;0.73;;
11907;SDS011;6014;47.690;9.130;2023-11-19T11:38:21;2.80;;;0.70;;
11907;SDS011;6014;47.690;9.130;2023-11-19T11:43:45;1.05;;;0.63;;
11907;SDS011;6014;47.690;9.130;2023-11-19T11:49:24;0.70;;;0.60;;
11907;SDS011;6014;47.690;9.130;2023-11-19T11:52:02;0.60;;;0.60;;
11907;SDS011;6014;47.690;9.130;2023-11-19T11:54:31;0.63;;;0.60;;
11907;SDS011;6014;47.690;9.130;2023-11-19T11:57:03;0.65;;;0.60;;
11907;SDS011;6014;47.690;9.130;2023-11-19T11:59:40;0.50;;;0.50;;
11907;SDS011;6014;47.690;9.130;2023-11-19T12:02:13;1.10;;;0.80;;
11907;SDS011;6014;47.690;9.130;2023-11-19T12:04:42;0.60;;;0.57;;
11907;SDS011;6014;47.690;9.130;2023-11-19T12:07:15;1.08;;;0.60;;
11907;SDS011;6014;47.690;9.130;2023-11-19T12:09:47;0.55;;;0.55;;
11907;SDS011;6014;47.690;9.130;2023-11-19T12:12:20;1.30;;;0.60;;
11907;SDS011;6014;47.690;9.130;2023-11-19T12:15:06;2.33;;;0.80;;
11907;SDS011;6014;47.690;9.130;2023-11-19T12:17:38;0.77;;;0.60;;
11907;SDS011;6014;47.690;9.130;2023-11-19T12:20:11;1.17;;;0.60;;
11907;SDS011;6014;47.690;9.130;2023-11-19T12:22:40;0.60;;;0.40;;
11907;SDS011;6014;47.690;9.130;2023-11-19T12:25:10;1.55;;;0.65;;
11907;SDS011;6014;47.690;9.130;2023-11-19T12:27:41;0.88;;;0.80;;
11907;SDS011;6014;47.690;9.130;2023-11-19T12:30:11;0.82;;;0.65;;
11907;SDS011;6014;47.690;9.130;2023-11-19T12:32:39;0.63;;;0.52;;
11907;SDS011;6014;47.690;9.130;2023-11-19T12:35:08;2.38;;;0.90;;
11907;SDS011;6014;47.690;9.130;2023-11-19T12:37:39;0.60;;;0.60;;
11907;SDS011;6014;47.690;9.130;2023-11-19T12:40:18;1.52;;;0.88;;
11907;SDS011;6014;47.690;9.130;2023-11-19T12:42:49;0.60;;;0.60;;
11907;SDS011;6014;47.690;9.130;2023-11-19T12:45:18;2.88;;;0.80;;
11907;SDS011;6014;47.690;9.130;2023-11-19T12:47:47;1.75;;;0.57;;
11907;SDS011;6014;47.690;9.130;2023-11-19T12:50:16;1.55;;;1.00;;
11907;SDS011;6014;47.690;9.130;2023-11-19T12:52:54;1.00;;;0.63;;
11907;SDS011;6014;47.690;9.130;2023-11-19T12:55:24;1.67;;;0.85;;
11907;SDS011;6014;47.690;9.130;2023-11-19T12:58:02;2.45;;;0.90;;
11907;SDS011;6014;47.690;9.130;2023-11-19T13:00:31;0.60;;;0.60;;
11907;SDS011;6014;47.690;9.130;2023-11-19T13:02:59;2.25;;;0.80;;
11907;SDS011;6014;47.690;9.130;2023-11-19T13:05:27;2.15;;;0.95;;
11907;SDS011;6014;47.690;9.130;2023-11-19T13:07:59;3.75;;;1.00;;
11907;SDS011;6014;47.690;9.130;2023-11-19T13:10:29;2.08;;;0.80;;
11907;SDS011;6014;47.690;9.130;2023-11-19T13:13:05;1.60;;;0.70;;
11907;SDS011;6014;47.690;9.130;2023-11-19T13:15:36;0.68;;;0.60;;
11907;SDS011;6014;47.690;9.130;2023-11-19T13:18:04;1.40;;;0.80;;
11907;SDS011;6014;47.690;9.130;2023-11-19T13:20:33;0.68;;;0.63;;
11907;SDS011;6014;47.690;9.130;2023-11-19T13:23:02;1.63;;;0.80;;
11907;SDS011;6014;47.690;9.130;2023-11-19T13:25:31;1.60;;;0.82;;
11907;SDS011;6014;47.690;9.130;2023-11-19T13:27:59;1.08;;;0.65;;
11907;SDS011;6014;47.690;9.130;2023-11-19T13:30:29;3.10;;;0.88;;
11907;SDS011;6014;47.690;9.130;2023-11-19T13:32:58;0.95;;;0.82;;
11907;SDS011;6014;47.690;9.130;2023-11-19T13:35:27;1.52;;;0.82;;
11907;SDS011;6014;47.690;9.130;2023-11-19T13:38:03;1.00;;;0.70;;
11907;SDS011;6014;47.690;9.130;2023-11-19T13:40:31;0.93;;;0.70;;
11907;SDS011;6014;47.690;9.130;2023-11-19T13:42:59;0.50;;;0.47;;
11907;SDS011;6014;47.690;9.130;2023-11-19T13:45:27;1.05;;;0.82;;
11907;SDS011;6014;47.690;9.130;2023-11-19T13:47:56;0.82;;;0.70;;
11907;SDS011;6014;47.690;9.130;2023-11-19T13:50:24;0.90;;;0.68;;
11907;SDS011;6014;47.690;9.130;2023-11-19T13:52:55;1.25;;;0.60;;
11907;SDS011;6014;47.690;9.130;2023-11-19T13:55:23;2.85;;;1.20;;
11907;SDS011;6014;47.690;9.130;2023-11-19T13:57:59;1.77;;;1.10;;
11907;SDS011;6014;47.690;9.130;2023-11-19T14:00:27;0.95;;;0.82;;
11907;SDS011;6014;47.690;9.130;2023-11-19T14:02:56;0.70;;;0.70;;
11907;SDS011;6014;47.690;9.130;2023-11-19T14:05:25;1.08;;;0.60;;
11907;SDS011;6014;47.690;9.130;2023-11-19T14:07:56;1.60;;;0.77;;
11907;SDS011;6014;47.690;9.130;2023-11-19T14:10:24;0.60;;;0.60;;
11907;SDS011;6014;47.690;9.130;2023-11-19T14:13:03;1.58;;;0.68;;
11907;SDS011;6014;47.690;9.130;2023-11-19T14:15:31;1.02;;;0.70;;
11907;SDS011;6014;47.690;9.130;2023-11-19T14:18:01;1.88;;;0.80;;
11907;SDS011;6014;47.690;9.130;2023-11-19T14:20:29;1.65;;;0.90;;
11907;SDS011;6014;47.690;9.130;2023-11-19T14:22:58;2.83;;;0.60;;
11907;SDS011;6014;47.690;9.130;2023-11-19T14:25:26;2.15;;;0.80;;
11907;SDS011;6014;47.690;9.130;2023-11-19T14:27:54;1.30;;;0.90;;
11907;SDS011;6014;47.690;9.130;2023-11-19T14:30:23;0.68;;;0.68;;
11907;SDS011;6014;47.690;9.130;2023-11-19T14:32:51;1.15;;;0.82;;
11907;SDS011;6014;47.690;9.130;2023-11-19T14:35:21;0.80;;;0.80;;
11907;SDS011;6014;47.690;9.130;2023-11-19T14:37:50;0.90;;;0.73;;
11907;SDS011;6014;47.690;9.130;2023-11-19T14:40:18;0.98;;;0.77;;
11907;SDS011;6014;47.690;9.130;2023-11-19T14:42:46;0.57;;;0.57;;
11907;SDS011;6014;47.690;9.130;2023-11-19T14:45:14;0.77;;;0.75;;
11907;SDS011;6014;47.690;9.130;2023-11-19T14:47:44;0.82;;;0.77;;
11907;SDS011;6014;47.690;9.130;2023-11-19T14:50:12;0.93;;;0.50;;
11907;SDS011;6014;47.690;9.130;2023-11-19T14:52:42;0.50;;;0.50;;
11907;SDS011;6014;47.690;9.130;2023-11-19T14:55:10;0.85;;;0.63;;
11907;SDS011;6014;47.690;9.130;2023-11-19T14:57:38;3.10;;;0.88;;
11907;SDS011;6014;47.690;9.130;2023-11-19T15:00:12;1.17;;;0.80;;
11907;SDS011;6014;47.690;9.130;2023-11-19T15:02:41;0.60;;;0.60;;
11907;SDS011;6014;47.690;9.130;2023-11-19T15:05:09;0.82;;;0.75;;
11907;SDS011;6014;47.690;9.130;2023-11-19T15:07:45;1.00;;;0.77;;
11907;SDS011;6014;47.690;9.130;2023-11-19T15:10:14;1.40;;;0.77;;
11907;SDS011;6014;47.690;9.130;2023-11-19T15:12:42;0.90;;;0.70;;
11907;SDS011;6014;47.690;9.130;2023-11-19T15:15:11;1.40;;;0.63;;
11907;SDS011;6014;47.690;9.130;2023-11-19T15:17:42;1.05;;;0.90;;
11907;SDS011;6014;47.690;9.130;2023-11-19T15:20:11;1.27;;;1.05;;
11907;SDS011;6014;47.690;9.130;2023-11-19T15:22:41;1.38;;;0.90;;
11907;SDS011;6014;47.690;9.130;2023-11-19T15:25:11;0.77;;;0.60;;
11907;SDS011;6014;47.690;9.130;2023-11-19T15:27:39;3.70;;;1.02;;
11907;SDS011;6014;47.690;9.130;2023-11-19T15:30:07;0.68;;;0.65;;
11907;SDS011;6014;47.690;9.130;2023-11-19T15:32:37;1.08;;;0.80;;
11907;SDS011;6014;47.690;9.130;2023-11-19T15:35:06;1.88;;;0.90;;